sensor_id;sensor_type;location;lat;lon;timestamp;temperature;humidity
5834;DHT22;2943;48.012;10.968;2023-09-07T00:00:30;16.30;99.90
5834;DHT22;2943;48.012;10.968;2023-09-07T00:02:57;16.30;99.90
5834;DHT22;2943;48.012;10.968;2023-09-07T00:05:25;16.30;99.90
5834;DHT22;2943;48.012;10.968;2023-09-07T00:07:51;16.30;99.90
5834;DHT22;2943;48.012;10.968;2023-09-07T00:10:18;16.30;99.90
5834;DHT22;2943;48.012;10.968;2023-09-07T00:12:46;16.30;99.90
5834;DHT22;2943;48.012;10.968;2023-09-07T00:15:13;16.30;99.90
5834;DHT22;2943;48.012;10.968;2023-09-07T00:17:39;16.20;99.90
5834;DHT22;2943;48.012;10.968;2023-09-07T00:20:06;16.10;99.90
5834;DHT22;2943;48.012;10.968;2023-09-07T00:22:36;15.90;99.90
5834;DHT22;2943;48.012;10.968;2023-09-07T00:25:03;15.80;99.90
5834;DHT22;2943;48.012;10.968;2023-09-07T00:27:31;15.70;99.90
5834;DHT22;2943;48.012;10.968;2023-09-07T00:29:59;15.70;99.90
5834;DHT22;2943;48.012;10.968;2023-09-07T00:32:26;15.70;99.90
5834;DHT22;2943;48.012;10.968;2023-09-07T00:34:53;15.70;99.90
5834;DHT22;2943;48.012;10.968;2023-09-07T00:37:19;15.70;99.90
5834;DHT22;2943;48.012;10.968;2023-09-07T00:39:46;15.70;99.90
5834;DHT22;2943;48.012;10.968;2023-09-07T00:42:12;15.80;99.90
5834;DHT22;2943;48.012;10.968;2023-09-07T00:44:39;15.80;99.90
5834;DHT22;2943;48.012;10.968;2023-09-07T00:47:07;15.80;99.90
5834;DHT22;2943;48.012;10.968;2023-09-07T00:49:33;15.80;99.90
5834;DHT22;2943;48.012;10.968;2023-09-07T00:52:00;15.90;99.90
5834;DHT22;2943;48.012;10.968;2023-09-07T00:54:27;15.90;99.90
5834;DHT22;2943;48.012;10.968;2023-09-07T00:56:55;15.90;99.90
5834;DHT22;2943;48.012;10.968;2023-09-07T00:59:22;15.90;99.90
5834;DHT22;2943;48.012;10.968;2023-09-07T01:01:49;15.90;99.90
5834;DHT22;2943;48.012;10.968;2023-09-07T01:04:17;15.80;99.90
5834;DHT22;2943;48.012;10.968;2023-09-07T01:06:45;15.70;99.90
5834;DHT22;2943;48.012;10.968;2023-09-07T01:09:14;15.60;99.90
5834;DHT22;2943;48.012;10.968;2023-09-07T01:11:42;15.60;99.90
5834;DHT22;2943;48.012;10.968;2023-09-07T01:14:09;15.50;99.90
5834;DHT22;2943;48.012;10.968;2023-09-07T01:16:35;15.50;99.90
5834;DHT22;2943;48.012;10.968;2023-09-07T01:19:03;15.50;99.90
5834;DHT22;2943;48.012;10.968;2023-09-07T01:21:33;15.50;99.90
5834;DHT22;2943;48.012;10.968;2023-09-07T01:24:00;15.50;99.90
5834;DHT22;2943;48.012;10.968;2023-09-07T01:26:27;15.50;99.90
5834;DHT22;2943;48.012;10.968;2023-09-07T01:28:54;15.50;99.90
5834;DHT22;2943;48.012;10.968;2023-09-07T01:31:21;15.50;99.90
5834;DHT22;2943;48.012;10.968;2023-09-07T01:33:48;15.50;99.90
5834;DHT22;2943;48.012;10.968;2023-09-07T01:36:14;15.60;99.90
5834;DHT22;2943;48.012;10.968;2023-09-07T01:38:42;15.50;99.90
5834;DHT22;2943;48.012;10.968;2023-09-07T01:41:09;15.50;99.90
5834;DHT22;2943;48.012;10.968;2023-09-07T01:43:35;15.50;99.90
5834;DHT22;2943;48.012;10.968;2023-09-07T01:46:02;15.50;99.90
5834;DHT22;2943;48.012;10.968;2023-09-07T01:48:29;15.50;99.90
5834;DHT22;2943;48.012;10.968;2023-09-07T01:50:55;15.50;99.90
5834;DHT22;2943;48.012;10.968;2023-09-07T01:53:22;15.50;99.90
5834;DHT22;2943;48.012;10.968;2023-09-07T01:55:50;15.50;99.90
5834;DHT22;2943;48.012;10.968;2023-09-07T01:58:16;15.50;99.90
5834;DHT22;2943;48.012;10.968;2023-09-07T02:00:43;15.50;99.90
5834;DHT22;2943;48.012;10.968;2023-09-07T02:03:09;15.50;99.90
5834;DHT22;2943;48.012;10.968;2023-09-07T02:05:36;15.50;99.90
5834;DHT22;2943;48.012;10.968;2023-09-07T02:08:03;15.40;99.90
5834;DHT22;2943;48.012;10.968;2023-09-07T02:10:30;15.40;99.90
5834;DHT22;2943;48.012;10.968;2023-09-07T02:12:58;15.40;99.90
5834;DHT22;2943;48.012;10.968;2023-09-07T02:15:25;15.40;99.90
5834;DHT22;2943;48.012;10.968;2023-09-07T02:17:51;15.30;99.90
5834;DHT22;2943;48.012;10.968;2023-09-07T02:20:18;15.40;99.90
5834;DHT22;2943;48.012;10.968;2023-09-07T02:22:45;15.30;99.90
5834;DHT22;2943;48.012;10.968;2023-09-07T02:25:12;15.30;99.90
5834;DHT22;2943;48.012;10.968;2023-09-07T02:27:38;15.20;99.90
5834;DHT22;2943;48.012;10.968;2023-09-07T02:30:07;15.10;99.90
5834;DHT22;2943;48.012;10.968;2023-09-07T02:32:33;15.10;99.90
5834;DHT22;2943;48.012;10.968;2023-09-07T02:35:00;15.10;99.90
5834;DHT22;2943;48.012;10.968;2023-09-07T02:37:27;15.00;99.90
5834;DHT22;2943;48.012;10.968;2023-09-07T02:39:53;15.00;99.90
5834;DHT22;2943;48.012;10.968;2023-09-07T02:42:20;14.90;99.90
5834;DHT22;2943;48.012;10.968;2023-09-07T02:44:46;14.90;99.90
5834;DHT22;2943;48.012;10.968;2023-09-07T02:47:14;14.80;99.90
5834;DHT22;2943;48.012;10.968;2023-09-07T02:49:42;14.80;99.90
5834;DHT22;2943;48.012;10.968;2023-09-07T02:52:08;14.80;99.90
5834;DHT22;2943;48.012;10.968;2023-09-07T02:54:35;14.80;99.90
5834;DHT22;2943;48.012;10.968;2023-09-07T02:57:02;14.80;99.90
5834;DHT22;2943;48.012;10.968;2023-09-07T02:59:28;14.80;99.90
5834;DHT22;2943;48.012;10.968;2023-09-07T03:01:55;14.80;99.90
5834;DHT22;2943;48.012;10.968;2023-09-07T03:04:23;14.80;99.90
5834;DHT22;2943;48.012;10.968;2023-09-07T03:06:50;14.70;99.90
5834;DHT22;2943;48.012;10.968;2023-09-07T03:09:16;14.80;99.90
5834;DHT22;2943;48.012;10.968;2023-09-07T03:11:43;14.70;99.90
5834;DHT22;2943;48.012;10.968;2023-09-07T03:14:09;14.70;99.90
5834;DHT22;2943;48.012;10.968;2023-09-07T03:16:36;14.80;99.90
5834;DHT22;2943;48.012;10.968;2023-09-07T03:19:04;14.70;99.90
5834;DHT22;2943;48.012;10.968;2023-09-07T03:21:31;14.70;99.90
5834;DHT22;2943;48.012;10.968;2023-09-07T03:23:59;14.70;99.90
5834;DHT22;2943;48.012;10.968;2023-09-07T03:26:25;14.70;99.90
5834;DHT22;2943;48.012;10.968;2023-09-07T03:28:52;14.60;99.90
5834;DHT22;2943;48.012;10.968;2023-09-07T03:31:18;14.60;99.90
5834;DHT22;2943;48.012;10.968;2023-09-07T03:33:45;14.50;99.90
5834;DHT22;2943;48.012;10.968;2023-09-07T03:36:11;14.40;99.90
5834;DHT22;2943;48.012;10.968;2023-09-07T03:38:41;14.40;99.90
5834;DHT22;2943;48.012;10.968;2023-09-07T03:41:08;14.30;99.90
5834;DHT22;2943;48.012;10.968;2023-09-07T03:43:35;14.30;99.90
5834;DHT22;2943;48.012;10.968;2023-09-07T03:46:01;14.30;99.90
5834;DHT22;2943;48.012;10.968;2023-09-07T03:48:28;14.20;99.90
5834;DHT22;2943;48.012;10.968;2023-09-07T03:50:54;14.10;99.90
5834;DHT22;2943;48.012;10.968;2023-09-07T03:53:21;14.10;99.90
5834;DHT22;2943;48.012;10.968;2023-09-07T03:55:49;14.00;99.90
5834;DHT22;2943;48.012;10.968;2023-09-07T03:58:16;14.10;99.90
5834;DHT22;2943;48.012;10.968;2023-09-07T04:00:43;14.10;99.90
5834;DHT22;2943;48.012;10.968;2023-09-07T04:03:10;14.10;99.90
5834;DHT22;2943;48.012;10.968;2023-09-07T04:05:37;14.10;99.90
5834;DHT22;2943;48.012;10.968;2023-09-07T04:08:04;14.10;99.90
5834;DHT22;2943;48.012;10.968;2023-09-07T04:10:30;14.10;99.90
5834;DHT22;2943;48.012;10.968;2023-09-07T04:12:58;14.10;99.90
5834;DHT22;2943;48.012;10.968;2023-09-07T04:15:25;14.10;99.90
5834;DHT22;2943;48.012;10.968;2023-09-07T04:17:52;14.10;99.90
5834;DHT22;2943;48.012;10.968;2023-09-07T04:20:20;14.00;99.90
5834;DHT22;2943;48.012;10.968;2023-09-07T04:22:46;14.00;99.90
5834;DHT22;2943;48.012;10.968;2023-09-07T04:25:13;14.00;99.90
5834;DHT22;2943;48.012;10.968;2023-09-07T04:27:40;14.00;99.90
5834;DHT22;2943;48.012;10.968;2023-09-07T04:30:08;13.90;99.90
5834;DHT22;2943;48.012;10.968;2023-09-07T04:32:35;13.90;99.90
5834;DHT22;2943;48.012;10.968;2023-09-07T04:35:02;13.80;99.90
5834;DHT22;2943;48.012;10.968;2023-09-07T04:37:28;13.80;99.90
5834;DHT22;2943;48.012;10.968;2023-09-07T04:39:55;13.80;99.90
5834;DHT22;2943;48.012;10.968;2023-09-07T04:42:21;13.80;99.90
5834;DHT22;2943;48.012;10.968;2023-09-07T04:44:48;13.80;99.90
5834;DHT22;2943;48.012;10.968;2023-09-07T04:47:16;13.80;99.90
5834;DHT22;2943;48.012;10.968;2023-09-07T04:49:47;13.70;99.90
5834;DHT22;2943;48.012;10.968;2023-09-07T04:52:14;13.70;99.90
5834;DHT22;2943;48.012;10.968;2023-09-07T04:54:41;13.70;99.90
5834;DHT22;2943;48.012;10.968;2023-09-07T04:57:07;13.70;99.90
5834;DHT22;2943;48.012;10.968;2023-09-07T04:59:34;13.70;99.90
5834;DHT22;2943;48.012;10.968;2023-09-07T05:02:00;13.70;99.90
5834;DHT22;2943;48.012;10.968;2023-09-07T05:04:29;13.70;99.90
5834;DHT22;2943;48.012;10.968;2023-09-07T05:06:56;13.70;99.90
5834;DHT22;2943;48.012;10.968;2023-09-07T05:09:22;13.70;99.90
5834;DHT22;2943;48.012;10.968;2023-09-07T05:11:50;13.70;99.90
5834;DHT22;2943;48.012;10.968;2023-09-07T05:14:17;13.70;99.90
5834;DHT22;2943;48.012;10.968;2023-09-07T05:16:44;13.70;99.90
5834;DHT22;2943;48.012;10.968;2023-09-07T05:19:10;13.70;99.90
5834;DHT22;2943;48.012;10.968;2023-09-07T05:21:38;13.70;99.90
5834;DHT22;2943;48.012;10.968;2023-09-07T05:24:05;13.70;99.90
5834;DHT22;2943;48.012;10.968;2023-09-07T05:26:32;13.70;99.90
5834;DHT22;2943;48.012;10.968;2023-09-07T05:28:58;13.70;99.90
5834;DHT22;2943;48.012;10.968;2023-09-07T05:31:25;13.80;99.90
5834;DHT22;2943;48.012;10.968;2023-09-07T05:33:52;13.80;99.90
5834;DHT22;2943;48.012;10.968;2023-09-07T05:36:18;13.80;99.90
5834;DHT22;2943;48.012;10.968;2023-09-07T05:38:46;13.80;99.90
5834;DHT22;2943;48.012;10.968;2023-09-07T05:41:13;13.80;99.90
5834;DHT22;2943;48.012;10.968;2023-09-07T05:43:39;13.90;99.90
5834;DHT22;2943;48.012;10.968;2023-09-07T05:46:06;13.90;99.90
5834;DHT22;2943;48.012;10.968;2023-09-07T05:48:32;13.90;99.90
5834;DHT22;2943;48.012;10.968;2023-09-07T05:50:59;14.00;99.90
5834;DHT22;2943;48.012;10.968;2023-09-07T05:53:26;14.00;99.90
5834;DHT22;2943;48.012;10.968;2023-09-07T05:55:54;14.00;99.90
5834;DHT22;2943;48.012;10.968;2023-09-07T05:58:20;14.10;99.90
5834;DHT22;2943;48.012;10.968;2023-09-07T06:00:47;14.10;99.90
5834;DHT22;2943;48.012;10.968;2023-09-07T06:03:14;14.10;99.90
5834;DHT22;2943;48.012;10.968;2023-09-07T06:05:40;14.20;99.90
5834;DHT22;2943;48.012;10.968;2023-09-07T06:08:07;14.30;99.90
5834;DHT22;2943;48.012;10.968;2023-09-07T06:10:34;14.30;99.90
5834;DHT22;2943;48.012;10.968;2023-09-07T06:13:02;14.30;99.90
5834;DHT22;2943;48.012;10.968;2023-09-07T06:15:29;14.40;99.90
5834;DHT22;2943;48.012;10.968;2023-09-07T06:17:56;14.50;99.90
5834;DHT22;2943;48.012;10.968;2023-09-07T06:20:22;14.50;99.90
5834;DHT22;2943;48.012;10.968;2023-09-07T06:22:49;14.60;99.90
5834;DHT22;2943;48.012;10.968;2023-09-07T06:25:16;14.60;99.90
5834;DHT22;2943;48.012;10.968;2023-09-07T06:27:42;14.70;99.90
5834;DHT22;2943;48.012;10.968;2023-09-07T06:30:10;14.70;99.90
5834;DHT22;2943;48.012;10.968;2023-09-07T06:32:37;14.70;99.90
5834;DHT22;2943;48.012;10.968;2023-09-07T06:35:05;14.90;99.90
5834;DHT22;2943;48.012;10.968;2023-09-07T06:37:32;15.20;99.90
5834;DHT22;2943;48.012;10.968;2023-09-07T06:39:59;15.70;99.90
5834;DHT22;2943;48.012;10.968;2023-09-07T06:42:25;16.00;99.90
5834;DHT22;2943;48.012;10.968;2023-09-07T06:44:52;16.20;99.90
5834;DHT22;2943;48.012;10.968;2023-09-07T06:47:20;16.20;99.90
5834;DHT22;2943;48.012;10.968;2023-09-07T06:49:47;16.20;99.90
5834;DHT22;2943;48.012;10.968;2023-09-07T06:52:14;16.20;99.90
5834;DHT22;2943;48.012;10.968;2023-09-07T06:54:40;16.10;99.90
5834;DHT22;2943;48.012;10.968;2023-09-07T06:57:07;16.10;99.90
5834;DHT22;2943;48.012;10.968;2023-09-07T06:59:34;16.20;99.90
5834;DHT22;2943;48.012;10.968;2023-09-07T07:02:00;16.20;99.90
5834;DHT22;2943;48.012;10.968;2023-09-07T07:04:31;16.20;99.90
5834;DHT22;2943;48.012;10.968;2023-09-07T07:06:58;16.20;99.90
5834;DHT22;2943;48.012;10.968;2023-09-07T07:09:26;16.20;99.90
5834;DHT22;2943;48.012;10.968;2023-09-07T07:11:53;16.20;99.90
5834;DHT22;2943;48.012;10.968;2023-09-07T07:14:19;16.20;99.90
5834;DHT22;2943;48.012;10.968;2023-09-07T07:16:46;16.20;99.90
5834;DHT22;2943;48.012;10.968;2023-09-07T07:19:13;16.20;99.90
5834;DHT22;2943;48.012;10.968;2023-09-07T07:21:40;16.20;99.90
5834;DHT22;2943;48.012;10.968;2023-09-07T07:24:07;16.30;99.90
5834;DHT22;2943;48.012;10.968;2023-09-07T07:26:34;16.30;99.90
5834;DHT22;2943;48.012;10.968;2023-09-07T07:29:01;16.40;99.90
5834;DHT22;2943;48.012;10.968;2023-09-07T07:31:28;16.50;99.90
5834;DHT22;2943;48.012;10.968;2023-09-07T07:33:54;16.50;99.90
5834;DHT22;2943;48.012;10.968;2023-09-07T07:36:21;16.60;99.90
5834;DHT22;2943;48.012;10.968;2023-09-07T07:38:50;16.70;99.90
5834;DHT22;2943;48.012;10.968;2023-09-07T07:41:16;16.80;99.90
5834;DHT22;2943;48.012;10.968;2023-09-07T07:43:43;16.80;99.90
5834;DHT22;2943;48.012;10.968;2023-09-07T07:46:09;16.90;99.90
5834;DHT22;2943;48.012;10.968;2023-09-07T07:48:36;17.10;99.90
5834;DHT22;2943;48.012;10.968;2023-09-07T07:51:03;17.10;99.90
5834;DHT22;2943;48.012;10.968;2023-09-07T07:53:30;17.20;99.90
5834;DHT22;2943;48.012;10.968;2023-09-07T07:55:58;17.30;99.90
5834;DHT22;2943;48.012;10.968;2023-09-07T07:58:25;17.40;99.90
5834;DHT22;2943;48.012;10.968;2023-09-07T08:00:51;17.50;99.90
5834;DHT22;2943;48.012;10.968;2023-09-07T08:03:18;17.60;99.90
5834;DHT22;2943;48.012;10.968;2023-09-07T08:05:45;17.70;99.90
5834;DHT22;2943;48.012;10.968;2023-09-07T08:08:12;17.70;99.90
5834;DHT22;2943;48.012;10.968;2023-09-07T08:10:38;17.80;99.90
5834;DHT22;2943;48.012;10.968;2023-09-07T08:13:08;17.90;99.90
5834;DHT22;2943;48.012;10.968;2023-09-07T08:15:34;18.00;99.90
5834;DHT22;2943;48.012;10.968;2023-09-07T08:18:01;18.10;99.90
5834;DHT22;2943;48.012;10.968;2023-09-07T08:20:28;18.10;99.90
5834;DHT22;2943;48.012;10.968;2023-09-07T08:22:55;18.20;99.90
5834;DHT22;2943;48.012;10.968;2023-09-07T08:25:23;18.30;99.90
5834;DHT22;2943;48.012;10.968;2023-09-07T08:27:51;18.40;99.90
5834;DHT22;2943;48.012;10.968;2023-09-07T08:30:22;18.40;99.90
5834;DHT22;2943;48.012;10.968;2023-09-07T08:32:50;18.50;99.90
5834;DHT22;2943;48.012;10.968;2023-09-07T08:35:17;18.60;99.90
5834;DHT22;2943;48.012;10.968;2023-09-07T08:37:44;18.70;99.90
5834;DHT22;2943;48.012;10.968;2023-09-07T08:40:11;18.80;99.90
5834;DHT22;2943;48.012;10.968;2023-09-07T08:42:37;18.90;99.90
5834;DHT22;2943;48.012;10.968;2023-09-07T08:45:04;19.00;99.90
5834;DHT22;2943;48.012;10.968;2023-09-07T08:47:35;19.00;99.90
5834;DHT22;2943;48.012;10.968;2023-09-07T08:50:02;19.10;99.90
5834;DHT22;2943;48.012;10.968;2023-09-07T08:52:31;19.20;99.90
5834;DHT22;2943;48.012;10.968;2023-09-07T08:54:58;19.30;99.90
5834;DHT22;2943;48.012;10.968;2023-09-07T08:57:26;19.40;99.90
5834;DHT22;2943;48.012;10.968;2023-09-07T08:59:53;19.50;99.90
5834;DHT22;2943;48.012;10.968;2023-09-07T09:02:20;19.60;99.90
5834;DHT22;2943;48.012;10.968;2023-09-07T09:04:48;19.70;99.90
5834;DHT22;2943;48.012;10.968;2023-09-07T09:07:14;19.80;99.90
5834;DHT22;2943;48.012;10.968;2023-09-07T09:09:41;19.80;99.90
5834;DHT22;2943;48.012;10.968;2023-09-07T09:12:07;19.90;99.90
5834;DHT22;2943;48.012;10.968;2023-09-07T09:14:34;20.00;99.90
5834;DHT22;2943;48.012;10.968;2023-09-07T09:17:01;20.20;99.90
5834;DHT22;2943;48.012;10.968;2023-09-07T09:19:31;20.20;99.90
5834;DHT22;2943;48.012;10.968;2023-09-07T09:21:59;20.30;99.90
5834;DHT22;2943;48.012;10.968;2023-09-07T09:24:26;20.40;99.90
5834;DHT22;2943;48.012;10.968;2023-09-07T09:26:52;20.50;99.90
5834;DHT22;2943;48.012;10.968;2023-09-07T09:29:21;20.60;99.90
5834;DHT22;2943;48.012;10.968;2023-09-07T09:31:48;20.70;99.90
5834;DHT22;2943;48.012;10.968;2023-09-07T09:34:14;20.80;99.90
5834;DHT22;2943;48.012;10.968;2023-09-07T09:36:41;20.80;99.90
5834;DHT22;2943;48.012;10.968;2023-09-07T09:39:09;20.90;99.90
5834;DHT22;2943;48.012;10.968;2023-09-07T09:41:37;20.90;99.90
5834;DHT22;2943;48.012;10.968;2023-09-07T09:44:04;21.00;99.90
5834;DHT22;2943;48.012;10.968;2023-09-07T09:46:31;21.00;99.90
5834;DHT22;2943;48.012;10.968;2023-09-07T09:48:58;21.10;99.90
5834;DHT22;2943;48.012;10.968;2023-09-07T09:51:25;21.20;99.90
5834;DHT22;2943;48.012;10.968;2023-09-07T09:53:53;21.20;99.90
5834;DHT22;2943;48.012;10.968;2023-09-07T09:56:21;21.20;99.90
5834;DHT22;2943;48.012;10.968;2023-09-07T09:58:48;21.30;99.90
5834;DHT22;2943;48.012;10.968;2023-09-07T10:01:15;21.30;99.90
5834;DHT22;2943;48.012;10.968;2023-09-07T10:03:42;21.40;99.90
5834;DHT22;2943;48.012;10.968;2023-09-07T10:06:11;21.50;99.90
5834;DHT22;2943;48.012;10.968;2023-09-07T10:08:39;21.50;99.90
5834;DHT22;2943;48.012;10.968;2023-09-07T10:11:07;21.60;99.90
5834;DHT22;2943;48.012;10.968;2023-09-07T10:13:35;21.70;99.90
5834;DHT22;2943;48.012;10.968;2023-09-07T10:16:02;21.80;99.90
5834;DHT22;2943;48.012;10.968;2023-09-07T10:18:33;21.90;99.90
5834;DHT22;2943;48.012;10.968;2023-09-07T10:21:00;22.00;99.90
5834;DHT22;2943;48.012;10.968;2023-09-07T10:23:35;22.10;99.90
5834;DHT22;2943;48.012;10.968;2023-09-07T10:26:02;22.20;99.90
5834;DHT22;2943;48.012;10.968;2023-09-07T10:28:30;22.30;99.90
5834;DHT22;2943;48.012;10.968;2023-09-07T10:31:04;22.40;99.90
5834;DHT22;2943;48.012;10.968;2023-09-07T10:33:31;22.50;99.90
5834;DHT22;2943;48.012;10.968;2023-09-07T10:35:57;22.60;99.90
5834;DHT22;2943;48.012;10.968;2023-09-07T10:38:26;22.70;99.90
5834;DHT22;2943;48.012;10.968;2023-09-07T10:40:56;22.70;99.90
5834;DHT22;2943;48.012;10.968;2023-09-07T10:43:24;22.80;99.90
5834;DHT22;2943;48.012;10.968;2023-09-07T10:45:50;22.80;99.90
5834;DHT22;2943;48.012;10.968;2023-09-07T10:48:18;22.90;99.90
5834;DHT22;2943;48.012;10.968;2023-09-07T10:50:45;23.00;99.90
5834;DHT22;2943;48.012;10.968;2023-09-07T10:53:13;23.10;99.90
5834;DHT22;2943;48.012;10.968;2023-09-07T10:55:40;23.10;99.90
5834;DHT22;2943;48.012;10.968;2023-09-07T10:58:08;23.20;99.90
5834;DHT22;2943;48.012;10.968;2023-09-07T11:00:35;23.30;99.90
5834;DHT22;2943;48.012;10.968;2023-09-07T11:03:06;23.30;99.90
5834;DHT22;2943;48.012;10.968;2023-09-07T11:05:34;23.40;99.90
5834;DHT22;2943;48.012;10.968;2023-09-07T11:08:02;23.50;99.90
5834;DHT22;2943;48.012;10.968;2023-09-07T11:10:31;23.60;99.90
5834;DHT22;2943;48.012;10.968;2023-09-07T11:13:00;23.70;99.90
5834;DHT22;2943;48.012;10.968;2023-09-07T11:15:29;23.70;99.90
5834;DHT22;2943;48.012;10.968;2023-09-07T11:17:55;23.80;99.90
5834;DHT22;2943;48.012;10.968;2023-09-07T11:20:22;23.80;99.90
5834;DHT22;2943;48.012;10.968;2023-09-07T11:22:50;23.90;99.90
5834;DHT22;2943;48.012;10.968;2023-09-07T11:25:17;24.10;99.90
5834;DHT22;2943;48.012;10.968;2023-09-07T11:27:43;24.10;99.90
5834;DHT22;2943;48.012;10.968;2023-09-07T11:30:10;24.20;99.90
5834;DHT22;2943;48.012;10.968;2023-09-07T11:32:37;24.30;99.90
5834;DHT22;2943;48.012;10.968;2023-09-07T11:35:05;24.40;99.90
5834;DHT22;2943;48.012;10.968;2023-09-07T11:37:32;24.40;99.90
5834;DHT22;2943;48.012;10.968;2023-09-07T11:40:00;24.50;99.90
5834;DHT22;2943;48.012;10.968;2023-09-07T11:42:29;24.60;99.90
5834;DHT22;2943;48.012;10.968;2023-09-07T11:44:56;24.60;99.90
5834;DHT22;2943;48.012;10.968;2023-09-07T11:47:22;24.70;99.90
5834;DHT22;2943;48.012;10.968;2023-09-07T11:49:49;24.70;99.90
5834;DHT22;2943;48.012;10.968;2023-09-07T11:52:18;24.80;99.90
5834;DHT22;2943;48.012;10.968;2023-09-07T11:54:45;24.90;99.90
5834;DHT22;2943;48.012;10.968;2023-09-07T11:57:13;25.00;99.90
5834;DHT22;2943;48.012;10.968;2023-09-07T11:59:41;25.00;99.90
5834;DHT22;2943;48.012;10.968;2023-09-07T12:02:07;25.10;99.90
5834;DHT22;2943;48.012;10.968;2023-09-07T12:04:36;25.20;99.90
5834;DHT22;2943;48.012;10.968;2023-09-07T12:07:03;25.30;99.90
5834;DHT22;2943;48.012;10.968;2023-09-07T12:09:30;25.40;99.90
5834;DHT22;2943;48.012;10.968;2023-09-07T12:11:56;25.40;99.90
5834;DHT22;2943;48.012;10.968;2023-09-07T12:14:24;25.50;99.90
5834;DHT22;2943;48.012;10.968;2023-09-07T12:16:51;25.60;99.90
5834;DHT22;2943;48.012;10.968;2023-09-07T12:19:18;25.70;99.90
5834;DHT22;2943;48.012;10.968;2023-09-07T12:21:44;25.70;99.90
5834;DHT22;2943;48.012;10.968;2023-09-07T12:24:11;25.80;99.90
5834;DHT22;2943;48.012;10.968;2023-09-07T12:26:37;25.70;99.90
5834;DHT22;2943;48.012;10.968;2023-09-07T12:29:04;25.80;99.90
5834;DHT22;2943;48.012;10.968;2023-09-07T12:31:33;25.70;99.90
5834;DHT22;2943;48.012;10.968;2023-09-07T12:33:59;25.80;99.90
5834;DHT22;2943;48.012;10.968;2023-09-07T12:36:26;25.90;99.90
5834;DHT22;2943;48.012;10.968;2023-09-07T12:38:55;26.00;99.90
5834;DHT22;2943;48.012;10.968;2023-09-07T12:41:23;26.10;99.90
5834;DHT22;2943;48.012;10.968;2023-09-07T12:43:49;26.10;99.90
5834;DHT22;2943;48.012;10.968;2023-09-07T12:46:17;26.20;99.90
5834;DHT22;2943;48.012;10.968;2023-09-07T12:48:45;26.30;99.90
5834;DHT22;2943;48.012;10.968;2023-09-07T12:51:12;26.30;99.90
5834;DHT22;2943;48.012;10.968;2023-09-07T12:53:38;26.30;99.90
5834;DHT22;2943;48.012;10.968;2023-09-07T12:56:06;26.30;99.90
5834;DHT22;2943;48.012;10.968;2023-09-07T12:58:32;26.40;99.90
5834;DHT22;2943;48.012;10.968;2023-09-07T13:00:59;26.50;99.90
5834;DHT22;2943;48.012;10.968;2023-09-07T13:03:26;26.60;99.90
5834;DHT22;2943;48.012;10.968;2023-09-07T13:05:55;26.70;99.90
5834;DHT22;2943;48.012;10.968;2023-09-07T13:08:22;26.70;99.90
5834;DHT22;2943;48.012;10.968;2023-09-07T13:10:48;26.70;99.90
5834;DHT22;2943;48.012;10.968;2023-09-07T13:13:15;26.80;99.90
5834;DHT22;2943;48.012;10.968;2023-09-07T13:15:42;26.80;99.90
5834;DHT22;2943;48.012;10.968;2023-09-07T13:18:09;26.90;99.90
5834;DHT22;2943;48.012;10.968;2023-09-07T13:20:36;27.00;99.90
5834;DHT22;2943;48.012;10.968;2023-09-07T13:23:04;27.10;99.90
5834;DHT22;2943;48.012;10.968;2023-09-07T13:25:31;27.10;99.90
5834;DHT22;2943;48.012;10.968;2023-09-07T13:27:58;27.20;99.90
5834;DHT22;2943;48.012;10.968;2023-09-07T13:30:24;27.20;99.90
5834;DHT22;2943;48.012;10.968;2023-09-07T13:32:51;27.20;99.90
5834;DHT22;2943;48.012;10.968;2023-09-07T13:35:18;27.10;99.90
5834;DHT22;2943;48.012;10.968;2023-09-07T13:37:45;27.00;99.90
5834;DHT22;2943;48.012;10.968;2023-09-07T13:40:13;27.00;99.90
5834;DHT22;2943;48.012;10.968;2023-09-07T13:42:40;27.10;99.90
5834;DHT22;2943;48.012;10.968;2023-09-07T13:45:08;27.20;99.90
5834;DHT22;2943;48.012;10.968;2023-09-07T13:47:36;27.40;99.90
5834;DHT22;2943;48.012;10.968;2023-09-07T13:50:03;27.50;99.90
5834;DHT22;2943;48.012;10.968;2023-09-07T13:52:30;27.50;99.90
5834;DHT22;2943;48.012;10.968;2023-09-07T13:54:56;27.60;99.90
5834;DHT22;2943;48.012;10.968;2023-09-07T13:57:24;27.60;99.90
5834;DHT22;2943;48.012;10.968;2023-09-07T13:59:53;27.60;99.90
5834;DHT22;2943;48.012;10.968;2023-09-07T14:02:20;27.60;99.90
5834;DHT22;2943;48.012;10.968;2023-09-07T14:04:48;27.70;99.90
5834;DHT22;2943;48.012;10.968;2023-09-07T14:07:15;27.70;99.90
5834;DHT22;2943;48.012;10.968;2023-09-07T14:09:41;27.80;99.90
5834;DHT22;2943;48.012;10.968;2023-09-07T14:12:09;27.90;99.90
5834;DHT22;2943;48.012;10.968;2023-09-07T14:14:37;27.80;99.90
5834;DHT22;2943;48.012;10.968;2023-09-07T14:17:04;27.80;99.90
5834;DHT22;2943;48.012;10.968;2023-09-07T14:19:32;27.70;99.90
5834;DHT22;2943;48.012;10.968;2023-09-07T14:21:59;27.90;99.90
5834;DHT22;2943;48.012;10.968;2023-09-07T14:24:26;27.90;99.90
5834;DHT22;2943;48.012;10.968;2023-09-07T14:26:53;28.00;99.90
5834;DHT22;2943;48.012;10.968;2023-09-07T14:29:19;28.00;99.90
5834;DHT22;2943;48.012;10.968;2023-09-07T14:31:51;28.10;99.90
5834;DHT22;2943;48.012;10.968;2023-09-07T14:34:20;28.10;99.90
5834;DHT22;2943;48.012;10.968;2023-09-07T14:36:47;28.10;99.90
5834;DHT22;2943;48.012;10.968;2023-09-07T14:39:14;28.20;99.90
5834;DHT22;2943;48.012;10.968;2023-09-07T14:41:41;28.20;99.90
5834;DHT22;2943;48.012;10.968;2023-09-07T14:44:08;28.30;99.90
5834;DHT22;2943;48.012;10.968;2023-09-07T14:46:35;28.30;99.90
5834;DHT22;2943;48.012;10.968;2023-09-07T14:49:04;28.30;99.90
5834;DHT22;2943;48.012;10.968;2023-09-07T14:51:30;28.30;99.90
5834;DHT22;2943;48.012;10.968;2023-09-07T14:53:57;28.30;99.90
5834;DHT22;2943;48.012;10.968;2023-09-07T14:56:24;28.30;99.90
5834;DHT22;2943;48.012;10.968;2023-09-07T14:58:51;28.30;99.90
5834;DHT22;2943;48.012;10.968;2023-09-07T15:01:17;28.40;99.90
5834;DHT22;2943;48.012;10.968;2023-09-07T15:03:44;28.40;99.90
5834;DHT22;2943;48.012;10.968;2023-09-07T15:06:12;28.50;99.90
5834;DHT22;2943;48.012;10.968;2023-09-07T15:08:41;28.50;99.90
5834;DHT22;2943;48.012;10.968;2023-09-07T15:11:08;28.50;99.90
5834;DHT22;2943;48.012;10.968;2023-09-07T15:13:34;28.50;99.90
5834;DHT22;2943;48.012;10.968;2023-09-07T15:16:01;28.50;99.90
5834;DHT22;2943;48.012;10.968;2023-09-07T15:18:31;28.50;99.90
5834;DHT22;2943;48.012;10.968;2023-09-07T15:20:58;28.60;99.90
5834;DHT22;2943;48.012;10.968;2023-09-07T15:23:26;28.60;99.90
5834;DHT22;2943;48.012;10.968;2023-09-07T15:25:53;28.40;99.90
5834;DHT22;2943;48.012;10.968;2023-09-07T15:28:21;28.30;99.90
5834;DHT22;2943;48.012;10.968;2023-09-07T15:30:47;28.30;99.90
5834;DHT22;2943;48.012;10.968;2023-09-07T15:33:14;28.40;99.90
5834;DHT22;2943;48.012;10.968;2023-09-07T15:35:41;28.40;99.90
5834;DHT22;2943;48.012;10.968;2023-09-07T15:38:07;28.50;99.90
5834;DHT22;2943;48.012;10.968;2023-09-07T15:40:35;28.50;99.90
5834;DHT22;2943;48.012;10.968;2023-09-07T15:43:04;28.50;99.90